sensor_id;sensor_type;location;lat;lon;timestamp;temperature;humidity
4795;DHT22;2411;47.060;15.064;2023-04-01T00:01:00;6.80;1.00
4795;DHT22;2411;47.060;15.064;2023-04-01T00:03:29;6.70;1.00
4795;DHT22;2411;47.060;15.064;2023-04-01T00:05:58;6.70;1.00
4795;DHT22;2411;47.060;15.064;2023-04-01T00:08:27;6.70;1.00
4795;DHT22;2411;47.060;15.064;2023-04-01T00:10:54;6.80;1.00
4795;DHT22;2411;47.060;15.064;2023-04-01T00:13:22;6.80;1.00
4795;DHT22;2411;47.060;15.064;2023-04-01T00:15:49;6.70;1.00
4795;DHT22;2411;47.060;15.064;2023-04-01T00:18:17;6.70;1.00
4795;DHT22;2411;47.060;15.064;2023-04-01T00:20:46;6.80;1.00
4795;DHT22;2411;47.060;15.064;2023-04-01T00:23:14;6.80;1.00
4795;DHT22;2411;47.060;15.064;2023-04-01T00:25:42;6.80;1.00
4795;DHT22;2411;47.060;15.064;2023-04-01T00:28:10;6.80;1.00
4795;DHT22;2411;47.060;15.064;2023-04-01T00:30:37;6.80;1.00
4795;DHT22;2411;47.060;15.064;2023-04-01T00:33:04;6.80;1.00
4795;DHT22;2411;47.060;15.064;2023-04-01T00:35:32;6.70;1.00
4795;DHT22;2411;47.060;15.064;2023-04-01T00:37:59;6.60;1.00
4795;DHT22;2411;47.060;15.064;2023-04-01T00:40:44;6.40;1.00
4795;DHT22;2411;47.060;15.064;2023-04-01T00:43:18;6.30;1.00
4795;DHT22;2411;47.060;15.064;2023-04-01T00:45:48;6.30;1.00
4795;DHT22;2411;47.060;15.064;2023-04-01T00:48:22;6.30;1.00
4795;DHT22;2411;47.060;15.064;2023-04-01T00:51:20;6.20;1.00
4795;DHT22;2411;47.060;15.064;2023-04-01T00:53:51;6.20;1.00
4795;DHT22;2411;47.060;15.064;2023-04-01T00:56:26;6.30;1.00
4795;DHT22;2411;47.060;15.064;2023-04-01T00:59:16;6.20;1.00
4795;DHT22;2411;47.060;15.064;2023-04-01T01:01:44;6.30;1.00
4795;DHT22;2411;47.060;15.064;2023-04-01T01:12:14;6.30;1.00
4795;DHT22;2411;47.060;15.064;2023-04-01T01:34:51;6.20;1.00
4795;DHT22;2411;47.060;15.064;2023-04-01T01:37:18;6.20;1.00
4795;DHT22;2411;47.060;15.064;2023-04-01T01:39:54;6.30;1.00
4795;DHT22;2411;47.060;15.064;2023-04-01T01:42:24;6.30;1.00
4795;DHT22;2411;47.060;15.064;2023-04-01T01:44:53;6.30;1.00
4795;DHT22;2411;47.060;15.064;2023-04-01T01:47:22;6.30;1.00
4795;DHT22;2411;47.060;15.064;2023-04-01T01:49:51;6.20;1.00
4795;DHT22;2411;47.060;15.064;2023-04-01T01:52:19;6.20;1.00
4795;DHT22;2411;47.060;15.064;2023-04-01T01:54:53;6.20;1.00
4795;DHT22;2411;47.060;15.064;2023-04-01T01:57:33;6.30;1.00
4795;DHT22;2411;47.060;15.064;2023-04-01T02:00:10;6.30;1.00
4795;DHT22;2411;47.060;15.064;2023-04-01T02:02:45;6.10;1.00
4795;DHT22;2411;47.060;15.064;2023-04-01T02:05:19;6.10;1.00
4795;DHT22;2411;47.060;15.064;2023-04-01T02:07:52;6.00;1.00
4795;DHT22;2411;47.060;15.064;2023-04-01T02:10:25;6.00;1.00
4795;DHT22;2411;47.060;15.064;2023-04-01T02:12:57;6.00;1.00
4795;DHT22;2411;47.060;15.064;2023-04-01T02:15:27;6.00;1.00
4795;DHT22;2411;47.060;15.064;2023-04-01T02:17:58;6.00;1.00
4795;DHT22;2411;47.060;15.064;2023-04-01T02:20:27;6.10;1.00
4795;DHT22;2411;47.060;15.064;2023-04-01T02:22:57;5.90;1.00
4795;DHT22;2411;47.060;15.064;2023-04-01T02:25:29;5.90;1.00
4795;DHT22;2411;47.060;15.064;2023-04-01T02:27:59;5.90;1.00
4795;DHT22;2411;47.060;15.064;2023-04-01T02:30:28;5.90;1.00
4795;DHT22;2411;47.060;15.064;2023-04-01T02:32:57;5.70;1.00
4795;DHT22;2411;47.060;15.064;2023-04-01T02:35:25;5.70;1.00
4795;DHT22;2411;47.060;15.064;2023-04-01T02:37:54;5.80;1.00
4795;DHT22;2411;47.060;15.064;2023-04-01T02:40:22;5.80;1.00
4795;DHT22;2411;47.060;15.064;2023-04-01T02:42:49;5.70;1.00
4795;DHT22;2411;47.060;15.064;2023-04-01T02:45:17;5.50;1.00
4795;DHT22;2411;47.060;15.064;2023-04-01T02:47:44;5.40;1.00
4795;DHT22;2411;47.060;15.064;2023-04-01T02:50:11;5.40;1.00
4795;DHT22;2411;47.060;15.064;2023-04-01T02:52:38;5.40;1.00
4795;DHT22;2411;47.060;15.064;2023-04-01T02:55:06;5.50;1.00
4795;DHT22;2411;47.060;15.064;2023-04-01T02:57:33;5.50;1.00
4795;DHT22;2411;47.060;15.064;2023-04-01T03:00:00;5.60;1.00
4795;DHT22;2411;47.060;15.064;2023-04-01T03:02:28;5.60;1.00
4795;DHT22;2411;47.060;15.064;2023-04-01T03:04:55;5.60;1.00
4795;DHT22;2411;47.060;15.064;2023-04-01T03:07:23;5.60;1.00
4795;DHT22;2411;47.060;15.064;2023-04-01T03:09:50;5.70;1.00
4795;DHT22;2411;47.060;15.064;2023-04-01T03:12:17;5.80;1.00
4795;DHT22;2411;47.060;15.064;2023-04-01T03:14:45;5.80;1.00
4795;DHT22;2411;47.060;15.064;2023-04-01T03:17:12;5.70;1.00
4795;DHT22;2411;47.060;15.064;2023-04-01T03:19:39;5.70;1.00
4795;DHT22;2411;47.060;15.064;2023-04-01T03:22:07;5.70;1.00
4795;DHT22;2411;47.060;15.064;2023-04-01T03:24:34;5.60;1.00
4795;DHT22;2411;47.060;15.064;2023-04-01T03:27:02;5.60;1.00
4795;DHT22;2411;47.060;15.064;2023-04-01T03:29:29;5.60;1.00
4795;DHT22;2411;47.060;15.064;2023-04-01T03:31:57;5.60;1.00
4795;DHT22;2411;47.060;15.064;2023-04-01T03:34:26;5.50;1.00
4795;DHT22;2411;47.060;15.064;2023-04-01T03:36:53;5.40;1.00
4795;DHT22;2411;47.060;15.064;2023-04-01T03:39:21;5.40;1.00
4795;DHT22;2411;47.060;15.064;2023-04-01T03:41:49;5.40;1.00
4795;DHT22;2411;47.060;15.064;2023-04-01T03:44:16;5.40;1.00
4795;DHT22;2411;47.060;15.064;2023-04-01T03:46:43;5.60;1.00
4795;DHT22;2411;47.060;15.064;2023-04-01T03:49:11;5.60;1.00
4795;DHT22;2411;47.060;15.064;2023-04-01T03:51:40;5.50;1.00
4795;DHT22;2411;47.060;15.064;2023-04-01T03:54:08;5.40;1.00
4795;DHT22;2411;47.060;15.064;2023-04-01T03:56:36;5.40;1.00
4795;DHT22;2411;47.060;15.064;2023-04-01T03:59:05;5.40;1.00
4795;DHT22;2411;47.060;15.064;2023-04-01T04:01:33;5.60;1.00
4795;DHT22;2411;47.060;15.064;2023-04-01T04:04:00;5.60;1.00
4795;DHT22;2411;47.060;15.064;2023-04-01T04:06:28;5.60;1.00
4795;DHT22;2411;47.060;15.064;2023-04-01T04:08:55;5.60;1.00
4795;DHT22;2411;47.060;15.064;2023-04-01T04:11:22;5.60;1.00
4795;DHT22;2411;47.060;15.064;2023-04-01T04:13:49;5.40;1.00
4795;DHT22;2411;47.060;15.064;2023-04-01T04:16:17;5.20;1.00
4795;DHT22;2411;47.060;15.064;2023-04-01T04:18:44;5.10;1.00
4795;DHT22;2411;47.060;15.064;2023-04-01T04:21:13;5.00;1.00
4795;DHT22;2411;47.060;15.064;2023-04-01T04:23:41;5.00;1.00
4795;DHT22;2411;47.060;15.064;2023-04-01T04:26:11;5.00;1.00
4795;DHT22;2411;47.060;15.064;2023-04-01T04:28:39;5.00;1.00
4795;DHT22;2411;47.060;15.064;2023-04-01T04:31:07;5.40;1.00
4795;DHT22;2411;47.060;15.064;2023-04-01T04:33:35;5.20;1.00
4795;DHT22;2411;47.060;15.064;2023-04-01T04:36:04;5.30;1.00
4795;DHT22;2411;47.060;15.064;2023-04-01T04:38:31;5.40;1.00
4795;DHT22;2411;47.060;15.064;2023-04-01T04:40:58;5.40;1.00
4795;DHT22;2411;47.060;15.064;2023-04-01T04:43:26;5.30;1.00
4795;DHT22;2411;47.060;15.064;2023-04-01T04:45:53;5.30;1.00
4795;DHT22;2411;47.060;15.064;2023-04-01T04:48:20;5.40;1.00
4795;DHT22;2411;47.060;15.064;2023-04-01T04:50:49;5.40;1.00
4795;DHT22;2411;47.060;15.064;2023-04-01T04:53:18;5.40;1.00
4795;DHT22;2411;47.060;15.064;2023-04-01T04:55:49;5.50;1.00
4795;DHT22;2411;47.060;15.064;2023-04-01T04:58:18;5.40;1.00
4795;DHT22;2411;47.060;15.064;2023-04-01T05:00:45;5.50;1.00
4795;DHT22;2411;47.060;15.064;2023-04-01T05:03:13;5.70;1.00
4795;DHT22;2411;47.060;15.064;2023-04-01T05:05:48;5.70;1.00
4795;DHT22;2411;47.060;15.064;2023-04-01T05:08:16;5.70;1.00
4795;DHT22;2411;47.060;15.064;2023-04-01T05:10:44;5.50;1.00
4795;DHT22;2411;47.060;15.064;2023-04-01T05:13:11;5.40;1.00
4795;DHT22;2411;47.060;15.064;2023-04-01T05:15:39;5.40;1.00
4795;DHT22;2411;47.060;15.064;2023-04-01T05:18:06;5.50;1.00
4795;DHT22;2411;47.060;15.064;2023-04-01T05:20:34;5.40;1.00
4795;DHT22;2411;47.060;15.064;2023-04-01T05:23:01;5.50;1.00
4795;DHT22;2411;47.060;15.064;2023-04-01T05:25:28;5.60;1.00
4795;DHT22;2411;47.060;15.064;2023-04-01T05:27:55;5.60;1.00
4795;DHT22;2411;47.060;15.064;2023-04-01T05:30:22;5.70;1.00
4795;DHT22;2411;47.060;15.064;2023-04-01T05:32:49;5.70;1.00
4795;DHT22;2411;47.060;15.064;2023-04-01T05:35:16;5.80;1.00
4795;DHT22;2411;47.060;15.064;2023-04-01T05:37:44;5.90;1.00
4795;DHT22;2411;47.060;15.064;2023-04-01T05:40:11;5.80;1.00
4795;DHT22;2411;47.060;15.064;2023-04-01T05:42:38;5.80;1.00
4795;DHT22;2411;47.060;15.064;2023-04-01T05:45:06;5.60;1.00
4795;DHT22;2411;47.060;15.064;2023-04-01T05:47:33;5.70;1.00
4795;DHT22;2411;47.060;15.064;2023-04-01T05:50:00;5.70;1.00
4795;DHT22;2411;47.060;15.064;2023-04-01T05:52:27;5.80;1.00
4795;DHT22;2411;47.060;15.064;2023-04-01T05:54:54;5.90;1.00
4795;DHT22;2411;47.060;15.064;2023-04-01T05:57:21;6.00;1.00
4795;DHT22;2411;47.060;15.064;2023-04-01T05:59:49;6.10;1.00
4795;DHT22;2411;47.060;15.064;2023-04-01T06:02:17;6.10;1.00
4795;DHT22;2411;47.060;15.064;2023-04-01T06:04:45;6.20;1.00
4795;DHT22;2411;47.060;15.064;2023-04-01T06:07:14;6.30;1.00
4795;DHT22;2411;47.060;15.064;2023-04-01T06:09:43;6.50;1.00
4795;DHT22;2411;47.060;15.064;2023-04-01T06:12:31;6.60;1.00
4795;DHT22;2411;47.060;15.064;2023-04-01T06:15:33;6.60;1.00
4795;DHT22;2411;47.060;15.064;2023-04-01T06:21:04;7.10;1.00
4795;DHT22;2411;47.060;15.064;2023-04-01T06:50:56;9.10;1.00
4795;DHT22;2411;47.060;15.064;2023-04-01T06:56:14;9.30;1.00
4795;DHT22;2411;47.060;15.064;2023-04-01T07:04:44;10.00;1.00
4795;DHT22;2411;47.060;15.064;2023-04-01T07:10:02;10.60;1.00
4795;DHT22;2411;47.060;15.064;2023-04-01T07:12:40;10.90;1.00
4795;DHT22;2411;47.060;15.064;2023-04-01T07:15:25;11.10;1.00
4795;DHT22;2411;47.060;15.064;2023-04-01T07:17:58;11.40;1.00
4795;DHT22;2411;47.060;15.064;2023-04-01T07:20:32;11.60;1.00
4795;DHT22;2411;47.060;15.064;2023-04-01T07:23:05;11.80;1.00
4795;DHT22;2411;47.060;15.064;2023-04-01T07:25:39;11.90;1.00
4795;DHT22;2411;47.060;15.064;2023-04-01T07:28:14;12.00;1.00
4795;DHT22;2411;47.060;15.064;2023-04-01T07:36:39;12.10;1.00
4795;DHT22;2411;47.060;15.064;2023-04-01T07:47:45;12.40;1.00
4795;DHT22;2411;47.060;15.064;2023-04-01T07:53:07;12.70;1.00
4795;DHT22;2411;47.060;15.064;2023-04-01T07:58:21;12.50;1.00
4795;DHT22;2411;47.060;15.064;2023-04-01T08:06:33;12.80;1.00
4795;DHT22;2411;47.060;15.064;2023-04-01T08:11:59;12.60;1.00
4795;DHT22;2411;47.060;15.064;2023-04-01T08:22:57;12.40;1.00
4795;DHT22;2411;47.060;15.064;2023-04-01T08:25:27;12.30;1.00
4795;DHT22;2411;47.060;15.064;2023-04-01T08:28:19;12.30;1.00
4795;DHT22;2411;47.060;15.064;2023-04-01T08:30:49;12.40;1.00
4795;DHT22;2411;47.060;15.064;2023-04-01T08:33:26;12.50;1.00
4795;DHT22;2411;47.060;15.064;2023-04-01T08:42:04;12.60;1.00
4795;DHT22;2411;47.060;15.064;2023-04-01T08:45:02;12.60;1.00
4795;DHT22;2411;47.060;15.064;2023-04-01T08:51:07;12.70;1.00
4795;DHT22;2411;47.060;15.064;2023-04-01T08:56:22;12.70;1.00
4795;DHT22;2411;47.060;15.064;2023-04-01T09:07:46;13.60;1.00
4795;DHT22;2411;47.060;15.064;2023-04-01T09:30:13;13.40;1.00
4795;DHT22;2411;47.060;15.064;2023-04-01T09:32:56;13.30;1.00
4795;DHT22;2411;47.060;15.064;2023-04-01T10:03:08;13.70;1.00
4795;DHT22;2411;47.060;15.064;2023-04-01T10:06:05;13.70;1.00
4795;DHT22;2411;47.060;15.064;2023-04-01T10:14:07;13.20;1.00
4795;DHT22;2411;47.060;15.064;2023-04-01T10:36:54;14.30;1.00
4795;DHT22;2411;47.060;15.064;2023-04-01T10:59:11;14.30;1.00
4795;DHT22;2411;47.060;15.064;2023-04-01T11:14:07;14.10;1.00
4795;DHT22;2411;47.060;15.064;2023-04-01T11:16:50;13.90;1.00
4795;DHT22;2411;47.060;15.064;2023-04-01T11:27:42;13.80;1.00
4795;DHT22;2411;47.060;15.064;2023-04-01T11:35:27;14.00;1.00
4795;DHT22;2411;47.060;15.064;2023-04-01T11:41:19;14.20;1.00
4795;DHT22;2411;47.060;15.064;2023-04-01T11:46:30;14.30;1.00
4795;DHT22;2411;47.060;15.064;2023-04-01T11:54:28;14.00;1.00
4795;DHT22;2411;47.060;15.064;2023-04-01T12:21:52;14.00;1.00
4795;DHT22;2411;47.060;15.064;2023-04-01T12:27:32;13.80;1.00
4795;DHT22;2411;47.060;15.064;2023-04-01T12:33:31;13.80;1.00
4795;DHT22;2411;47.060;15.064;2023-04-01T12:50:23;14.10;1.00
4795;DHT22;2411;47.060;15.064;2023-04-01T12:53:22;14.10;1.00
4795;DHT22;2411;47.060;15.064;2023-04-01T12:55:55;14.10;1.00
4795;DHT22;2411;47.060;15.064;2023-04-01T13:01:34;14.70;1.00
4795;DHT22;2411;47.060;15.064;2023-04-01T13:10:25;14.60;1.00
4795;DHT22;2411;47.060;15.064;2023-04-01T13:15:58;14.80;1.00
4795;DHT22;2411;47.060;15.064;2023-04-01T13:18:45;14.60;1.00
4795;DHT22;2411;47.060;15.064;2023-04-01T13:30:08;14.80;1.00
4795;DHT22;2411;47.060;15.064;2023-04-01T13:32:50;14.80;1.00
4795;DHT22;2411;47.060;15.064;2023-04-01T13:40:51;15.10;1.00
4795;DHT22;2411;47.060;15.064;2023-04-01T13:43:52;15.20;1.00
4795;DHT22;2411;47.060;15.064;2023-04-01T13:46:42;15.30;1.00
4795;DHT22;2411;47.060;15.064;2023-04-01T13:49:26;15.10;1.00
4795;DHT22;2411;47.060;15.064;2023-04-01T13:55:05;15.10;1.00
4795;DHT22;2411;47.060;15.064;2023-04-01T14:12:47;15.70;1.00
4795;DHT22;2411;47.060;15.064;2023-04-01T14:18:27;15.90;1.00
4795;DHT22;2411;47.060;15.064;2023-04-01T14:21:12;16.20;1.00
4795;DHT22;2411;47.060;15.064;2023-04-01T14:49:35;15.90;1.00
4795;DHT22;2411;47.060;15.064;2023-04-01T14:54:49;16.20;1.00
4795;DHT22;2411;47.060;15.064;2023-04-01T14:57:24;16.50;1.00
4795;DHT22;2411;47.060;15.064;2023-04-01T15:05:31;16.60;1.00
4795;DHT22;2411;47.060;15.064;2023-04-01T15:16:46;17.00;1.00
4795;DHT22;2411;47.060;15.064;2023-04-01T15:19:43;16.80;1.00
4795;DHT22;2411;47.060;15.064;2023-04-01T15:25:17;16.70;1.00
4795;DHT22;2411;47.060;15.064;2023-04-01T15:31:10;16.90;1.00
4795;DHT22;2411;47.060;15.064;2023-04-01T15:36:43;15.90;1.00
4795;DHT22;2411;47.060;15.064;2023-04-01T15:39:14;15.70;1.00
4795;DHT22;2411;47.060;15.064;2023-04-01T15:42:25;15.60;1.00
4795;DHT22;2411;47.060;15.064;2023-04-01T15:55:59;14.60;1.00
4795;DHT22;2411;47.060;15.064;2023-04-01T16:01:34;14.40;1.00
4795;DHT22;2411;47.060;15.064;2023-04-01T16:04:35;14.10;1.00
4795;DHT22;2411;47.060;15.064;2023-04-01T16:22:23;13.50;1.00
4795;DHT22;2411;47.060;15.064;2023-04-01T16:30:40;13.70;1.00
4795;DHT22;2411;47.060;15.064;2023-04-01T16:33:55;13.60;1.00
4795;DHT22;2411;47.060;15.064;2023-04-01T16:36:33;13.50;1.00
4795;DHT22;2411;47.060;15.064;2023-04-01T16:39:27;13.40;1.00
4795;DHT22;2411;47.060;15.064;2023-04-01T16:48:01;12.90;1.00
4795;DHT22;2411;47.060;15.064;2023-04-01T16:51:00;12.50;1.00
4795;DHT22;2411;47.060;15.064;2023-04-01T16:53:41;12.30;1.00
4795;DHT22;2411;47.060;15.064;2023-04-01T16:56:22;12.10;1.00
4795;DHT22;2411;47.060;15.064;2023-04-01T16:59:17;12.20;1.00
4795;DHT22;2411;47.060;15.064;2023-04-01T17:01:55;12.10;1.00
4795;DHT22;2411;47.060;15.064;2023-04-01T17:12:41;12.20;1.00
4795;DHT22;2411;47.060;15.064;2023-04-01T17:15:39;12.10;1.00
4795;DHT22;2411;47.060;15.064;2023-04-01T17:24:05;12.20;1.00
4795;DHT22;2411;47.060;15.064;2023-04-01T17:26:41;12.20;1.00
4795;DHT22;2411;47.060;15.064;2023-04-01T17:29:28;12.20;1.00
4795;DHT22;2411;47.060;15.064;2023-04-01T17:32:09;12.30;1.00
4795;DHT22;2411;47.060;15.064;2023-04-01T17:57:01;11.60;1.00
4795;DHT22;2411;47.060;15.064;2023-04-01T17:59:44;11.50;1.00
4795;DHT22;2411;47.060;15.064;2023-04-01T18:02:46;11.40;1.00
4795;DHT22;2411;47.060;15.064;2023-04-01T18:11:00;11.40;1.00
4795;DHT22;2411;47.060;15.064;2023-04-01T18:22:39;11.10;1.00
4795;DHT22;2411;47.060;15.064;2023-04-01T18:25:22;11.00;1.00
4795;DHT22;2411;47.060;15.064;2023-04-01T18:30:56;11.30;1.00
4795;DHT22;2411;47.060;15.064;2023-04-01T18:33:34;11.40;1.00
4795;DHT22;2411;47.060;15.064;2023-04-01T18:38:59;11.00;1.00
4795;DHT22;2411;47.060;15.064;2023-04-01T18:44:25;10.80;1.00
4795;DHT22;2411;47.060;15.064;2023-04-01T18:47:15;10.70;1.00
4795;DHT22;2411;47.060;15.064;2023-04-01T18:49:54;10.80;1.00
4795;DHT22;2411;47.060;15.064;2023-04-01T18:55:23;10.70;1.00
4795;DHT22;2411;47.060;15.064;2023-04-01T19:00:47;10.70;1.00
4795;DHT22;2411;47.060;15.064;2023-04-01T19:03:23;10.60;1.00
4795;DHT22;2411;47.060;15.064;2023-04-01T19:05:55;10.60;1.00
4795;DHT22;2411;47.060;15.064;2023-04-01T19:08:32;10.50;1.00
4795;DHT22;2411;47.060;15.064;2023-04-01T19:11:26;10.50;1.00
4795;DHT22;2411;47.060;15.064;2023-04-01T19:19:29;10.50;1.00
4795;DHT22;2411;47.060;15.064;2023-04-01T19:23:07;10.30;1.00
4795;DHT22;2411;47.060;15.064;2023-04-01T19:25:34;10.20;1.00
4795;DHT22;2411;47.060;15.064;2023-04-01T19:30:51;10.30;1.00
4795;DHT22;2411;47.060;15.064;2023-04-01T19:36:31;10.20;1.00
4795;DHT22;2411;47.060;15.064;2023-04-01T19:44:59;10.20;1.00
4795;DHT22;2411;47.060;15.064;2023-04-01T19:50:29;10.30;1.00
4795;DHT22;2411;47.060;15.064;2023-04-01T19:55:48;9.90;1.00
4795;DHT22;2411;47.060;15.064;2023-04-01T20:00:59;9.90;1.00
4795;DHT22;2411;47.060;15.064;2023-04-01T20:09:11;9.80;1.00
4795;DHT22;2411;47.060;15.064;2023-04-01T20:12:06;9.90;1.00
4795;DHT22;2411;47.060;15.064;2023-04-01T20:14:57;9.80;1.00
4795;DHT22;2411;47.060;15.064;2023-04-01T20:25:27;9.90;1.00
4795;DHT22;2411;47.060;15.064;2023-04-01T20:39:20;9.90;1.00
4795;DHT22;2411;47.060;15.064;2023-04-01T20:45:17;9.80;1.00
4795;DHT22;2411;47.060;15.064;2023-04-01T21:02:12;9.20;1.00
4795;DHT22;2411;47.060;15.064;2023-04-01T21:05:00;9.00;1.00
4795;DHT22;2411;47.060;15.064;2023-04-01T21:13:49;8.70;1.00
4795;DHT22;2411;47.060;15.064;2023-04-01T21:16:38;8.50;1.00
4795;DHT22;2411;47.060;15.064;2023-04-01T21:22:09;8.40;1.00
4795;DHT22;2411;47.060;15.064;2023-04-01T21:41:41;8.00;1.00
4795;DHT22;2411;47.060;15.064;2023-04-01T22:08:46;7.80;1.00
4795;DHT22;2411;47.060;15.064;2023-04-01T22:19:08;8.00;1.00
4795;DHT22;2411;47.060;15.064;2023-04-01T22:27:17;8.00;1.00
4795;DHT22;2411;47.060;15.064;2023-04-01T22:30:03;8.00;1.00
4795;DHT22;2411;47.060;15.064;2023-04-01T22:32:40;8.00;1.00
4795;DHT22;2411;47.060;15.064;2023-04-01T22:48:23;7.80;1.00
4795;DHT22;2411;47.060;15.064;2023-04-01T22:56:38;7.80;1.00
4795;DHT22;2411;47.060;15.064;2023-04-01T23:02:27;7.50;1.00
4795;DHT22;2411;47.060;15.064;2023-04-01T23:04:59;7.10;1.00
4795;DHT22;2411;47.060;15.064;2023-04-01T23:10:12;7.10;1.00
4795;DHT22;2411;47.060;15.064;2023-04-01T23:12:42;7.00;1.00
4795;DHT22;2411;47.060;15.064;2023-04-01T23:15:13;6.80;1.00
4795;DHT22;2411;47.060;15.064;2023-04-01T23:17:51;6.90;1.00
4795;DHT22;2411;47.060;15.064;2023-04-01T23:28:51;7.20;1.00
4795;DHT22;2411;47.060;15.064;2023-04-01T23:31:38;7.30;1.00
4795;DHT22;2411;47.060;15.064;2023-04-01T23:36:43;7.40;1.00
4795;DHT22;2411;47.060;15.064;2023-04-01T23:39:35;7.40;1.00
4795;DHT22;2411;47.060;15.064;2023-04-01T23:42:15;7.40;1.00
4795;DHT22;2411;47.060;15.064;2023-04-01T23:44:43;7.30;1.00
4795;DHT22;2411;47.060;15.064;2023-04-01T23:47:18;7.30;1.00
4795;DHT22;2411;47.060;15.064;2023-04-01T23:50:13;7.40;1.00
4795;DHT22;2411;47.060;15.064;2023-04-01T23:52:52;7.50;1.00
4795;DHT22;2411;47.060;15.064;2023-04-01T23:55:31;7.50;1.00
